リーブルヴィル の空港の天気 - METARとTAF

リーブルヴィル国際空港 ( FOOL / LBV ) - ガボン リーブルヴィル
飛行場実況気象(Metar)
観測時間09/25 06:00 WAT (09/25 05:00 UTC)
風向・風速西南西 3m/s
視程10km以上
天気現象
全天の4割程度の雲 雲底高度 300m
全天の8割程度の雲 雲底高度 910m
気温26℃
湿度84%
気圧1014hPa
METARFOOL 250500Z 24005KT 9999 SCT010 BKN030 26/23 Q1014 NOSIG
過去の天気等 Google飛行場航空写真 Wunderground天気予報

過去48時間のMETAR

飛行場予報(TAF)
発表時間: 9/25 06:00 WAT (9/25 05:00 UTC)
予報対象時間: 25日7時 WAT ~ 26日13時 WAT
風向・風速南西 4m/s
視程10km以上
全天の4割程度の雲 雲底高度 370m
全天の8割程度の雲 雲底高度 910m
25日8時 WAT ~ 25日12時 WAT に一時的に
全天の8割程度の雲 雲底高度 300m
全天を覆う雲 雲底高度 790m
25日18時 WAT ~ 25日24時 WAT に 確率 30% で一時的に
視程3000m
天気現象雨霧雨
全天の8割程度の雲 雲底高度 300m
全天を覆う雲 雲底高度 790m
TAF FOOL 250500Z 2506/2612 22008KT 9999 SCT012 BKN030
TEMPO 2507/2511 BKN010 OVC026
PROB30 TEMPO 2517/2523 3000 RADZ BKN010 OVC026